createdAt,value
2019-03-18T00:00:18.616Z,7.33
2019-03-18T00:01:18.640Z,7.33
2019-03-18T00:02:18.668Z,7.37
2019-03-18T00:03:18.760Z,7.32
2019-03-18T00:04:18.759Z,7.39
2019-03-18T00:05:18.742Z,7.36
2019-03-18T00:06:18.741Z,7.36
2019-03-18T00:07:18.758Z,7.29
2019-03-18T00:08:18.782Z,7.33
2019-03-18T00:09:18.796Z,7.28
2019-03-18T00:10:18.826Z,7.33
2019-03-18T00:11:18.836Z,7.33
2019-03-18T00:12:18.857Z,7.31
2019-03-18T00:13:18.880Z,7.29
2019-03-18T00:14:18.903Z,7.37
2019-03-18T00:15:18.917Z,7.40
2019-03-18T00:16:18.936Z,7.11
2019-03-18T00:17:18.961Z,7.29
2019-03-18T00:18:18.985Z,7.29
2019-03-18T00:19:19.005Z,7.14
2019-03-18T00:20:19.021Z,7.22
2019-03-18T00:21:19.043Z,7.22
2019-03-18T00:22:19.063Z,7.18
2019-03-18T00:23:19.082Z,7.18
2019-03-18T00:24:19.103Z,7.15
2019-03-18T00:25:19.117Z,7.21
2019-03-18T00:26:19.138Z,7.01
2019-03-18T00:27:19.158Z,7.08
2019-03-18T00:28:19.181Z,7.13
2019-03-18T00:29:19.204Z,7.14
2019-03-18T00:30:19.219Z,7.18
2019-03-18T00:31:19.240Z,7.11
2019-03-18T00:32:19.271Z,7.10
2019-03-18T00:33:19.288Z,6.97
2019-03-18T00:34:19.301Z,6.95
2019-03-18T00:35:19.327Z,6.95
2019-03-18T00:36:19.340Z,6.96
2019-03-18T00:37:19.372Z,6.96
2019-03-18T00:38:19.383Z,7.05
2019-03-18T00:39:19.401Z,6.95
2019-03-18T00:40:19.415Z,6.96
2019-03-18T00:41:19.447Z,6.96
2019-03-18T00:42:19.469Z,6.93
2019-03-18T00:43:19.487Z,6.85
2019-03-18T00:44:19.503Z,6.82
2019-03-18T00:45:19.529Z,6.82
2019-03-18T00:46:19.550Z,6.82
2019-03-18T00:47:19.558Z,6.87
2019-03-18T00:48:19.588Z,6.89
2019-03-18T00:49:19.598Z,6.89
2019-03-18T00:50:19.619Z,6.74
2019-03-18T00:51:19.643Z,6.72
2019-03-18T00:52:19.662Z,6.71
2019-03-18T00:53:19.684Z,6.77
2019-03-18T00:54:19.698Z,6.70
2019-03-18T00:55:19.728Z,6.75
2019-03-18T00:56:19.760Z,6.74
2019-03-18T00:57:19.758Z,6.70
2019-03-18T00:58:19.782Z,6.71
2019-03-18T00:59:19.802Z,6.72
2019-03-18T01:00:19.813Z,6.72
2019-03-18T01:01:19.844Z,6.70
2019-03-18T01:02:19.858Z,6.72
2019-03-18T01:03:19.883Z,6.70
2019-03-18T01:04:19.906Z,6.64
2019-03-18T01:05:19.919Z,6.71
2019-03-18T01:06:19.937Z,6.71
2019-03-18T01:07:19.959Z,6.67
2019-03-18T01:08:19.975Z,6.70
2019-03-18T01:09:20.004Z,6.74
2019-03-18T01:10:20.018Z,6.70
2019-03-18T01:11:20.037Z,6.68
2019-03-18T01:12:20.063Z,6.67
2019-03-18T01:13:20.075Z,6.71
2019-03-18T01:14:20.097Z,6.74
2019-03-18T01:15:27.961Z,6.71
2019-03-18T01:16:20.135Z,6.74
2019-03-18T01:17:20.168Z,6.72
2019-03-18T01:18:20.176Z,6.74
2019-03-18T01:19:20.198Z,6.72
2019-03-18T01:20:20.217Z,6.72
2019-03-18T01:21:20.241Z,6.72
2019-03-18T01:22:20.252Z,6.72
2019-03-18T01:23:20.276Z,6.70
2019-03-18T01:24:20.302Z,6.64
2019-03-18T01:25:20.323Z,6.62
2019-03-18T01:26:20.335Z,6.70
2019-03-18T01:27:20.352Z,6.71
2019-03-18T01:28:20.373Z,6.62
2019-03-18T01:29:20.398Z,6.65
2019-03-18T01:30:20.411Z,6.77
2019-03-18T01:31:20.432Z,6.59
2019-03-18T01:32:20.457Z,6.72
2019-03-18T01:33:20.471Z,6.70
2019-03-18T01:34:20.493Z,6.68
2019-03-18T01:35:20.521Z,6.62
2019-03-18T01:36:20.526Z,6.67
2019-03-18T01:37:20.558Z,6.70
2019-03-18T01:38:20.569Z,6.71
2019-03-18T01:39:20.601Z,6.71
2019-03-18T01:40:20.621Z,6.67
2019-03-18T01:41:20.634Z,6.57
2019-03-18T01:42:20.659Z,6.68
2019-03-18T01:43:20.669Z,6.56
2019-03-18T01:44:20.692Z,6.53
2019-03-18T01:45:20.717Z,6.57
2019-03-18T01:46:20.729Z,6.59
2019-03-18T01:47:20.745Z,6.62
2019-03-18T01:48:20.770Z,6.56
2019-03-18T01:49:20.785Z,6.56
2019-03-18T01:50:20.821Z,6.47
2019-03-18T01:51:20.824Z,6.53
2019-03-18T01:52:20.842Z,6.53
2019-03-18T01:53:20.870Z,6.49
2019-03-18T01:54:20.892Z,6.68
2019-03-18T01:55:20.904Z,6.52
2019-03-18T01:56:20.922Z,6.68
2019-03-18T01:57:20.943Z,6.59
2019-03-18T01:58:20.964Z,6.64
2019-03-18T01:59:20.980Z,6.60
2019-03-18T02:00:21.006Z,6.53
2019-03-18T02:01:21.027Z,6.54
2019-03-18T02:02:21.043Z,6.47
2019-03-18T02:03:21.085Z,6.50
2019-03-18T02:04:21.079Z,6.54
2019-03-18T02:05:21.106Z,6.54
2019-03-18T02:06:21.120Z,6.53
2019-03-18T02:07:21.139Z,6.67
2019-03-18T02:08:21.231Z,6.54
2019-03-18T02:09:21.195Z,6.53
2019-03-18T02:10:21.198Z,6.60
2019-03-18T02:11:21.212Z,6.52
2019-03-18T02:12:21.233Z,6.52
2019-03-18T02:13:21.265Z,6.36
2019-03-18T02:14:21.272Z,6.43
2019-03-18T02:15:21.301Z,6.52
2019-03-18T02:16:21.322Z,6.47
2019-03-18T02:17:21.327Z,6.43
2019-03-18T02:18:21.357Z,6.41
2019-03-18T02:19:21.374Z,6.44
2019-03-18T02:20:21.394Z,6.56
2019-03-18T02:21:21.426Z,6.44
2019-03-18T02:22:21.433Z,6.39
2019-03-18T02:23:21.446Z,6.46
2019-03-18T02:24:21.472Z,6.47
2019-03-18T02:25:21.486Z,6.46
2019-03-18T02:26:21.508Z,6.41
2019-03-18T02:27:21.529Z,6.53
2019-03-18T02:28:21.545Z,6.39
2019-03-18T02:29:21.565Z,6.47
2019-03-18T02:30:21.592Z,6.41
2019-03-18T02:31:21.605Z,6.35
2019-03-18T02:32:21.715Z,6.41
2019-03-18T02:33:21.659Z,6.36
2019-03-18T02:34:21.668Z,6.43
2019-03-18T02:35:21.687Z,6.34
2019-03-18T02:36:21.705Z,6.47
2019-03-18T02:37:21.738Z,6.35
2019-03-18T02:38:21.752Z,6.34
2019-03-18T02:39:21.758Z,6.43
2019-03-18T02:40:21.787Z,6.36
2019-03-18T02:41:21.802Z,6.32
2019-03-18T02:42:21.811Z,6.35
2019-03-18T02:43:21.837Z,6.34
2019-03-18T02:44:21.862Z,6.36
2019-03-18T02:45:24.564Z,6.20
2019-03-18T02:46:21.937Z,6.25
2019-03-18T02:47:21.931Z,6.26
2019-03-18T02:48:21.937Z,6.39
2019-03-18T02:49:21.959Z,6.28
2019-03-18T02:50:21.970Z,6.35
2019-03-18T02:51:21.993Z,6.17
2019-03-18T02:52:22.018Z,6.31
2019-03-18T02:53:22.039Z,6.25
2019-03-18T02:54:22.051Z,6.26
2019-03-18T02:55:22.076Z,6.29
2019-03-18T02:56:22.090Z,6.31
2019-03-18T02:57:22.114Z,6.28
2019-03-18T02:58:22.146Z,6.28
2019-03-18T02:59:22.152Z,6.20
2019-03-18T03:00:22.167Z,6.25
2019-03-18T03:01:22.189Z,6.28
2019-03-18T03:02:22.203Z,6.26
2019-03-18T03:03:22.226Z,6.25
2019-03-18T03:04:22.244Z,6.28
2019-03-18T03:05:22.263Z,6.22
2019-03-18T03:06:22.284Z,6.22
2019-03-18T03:07:22.302Z,6.26
2019-03-18T03:08:22.318Z,6.25
2019-03-18T03:09:22.345Z,6.19
2019-03-18T03:10:22.365Z,6.28
2019-03-18T03:11:22.383Z,6.20
2019-03-18T03:12:22.405Z,6.25
2019-03-18T03:13:22.427Z,6.20
2019-03-18T03:14:22.450Z,6.19
2019-03-18T03:15:22.459Z,6.22
2019-03-18T03:16:26.945Z,6.22
2019-03-18T03:17:22.494Z,6.19
2019-03-18T03:18:22.527Z,6.31
2019-03-18T03:19:22.547Z,6.26
2019-03-18T03:20:22.559Z,6.10
2019-03-18T03:21:22.575Z,6.17
2019-03-18T03:22:22.594Z,6.13
2019-03-18T03:23:22.663Z,6.26
2019-03-18T03:24:22.633Z,6.20
2019-03-18T03:25:24.929Z,6.28
2019-03-18T03:26:22.662Z,6.25
2019-03-18T03:27:22.704Z,6.19
2019-03-18T03:28:22.712Z,6.10
2019-03-18T03:29:22.734Z,6.07
2019-03-18T03:30:22.746Z,6.07
2019-03-18T03:31:22.774Z,6.25
2019-03-18T03:32:22.804Z,6.20
2019-03-18T03:33:22.802Z,6.22
2019-03-18T03:34:22.819Z,6.20
2019-03-18T03:35:22.843Z,6.15
2019-03-18T03:36:22.863Z,6.16
2019-03-18T03:37:22.882Z,6.25
2019-03-18T03:38:22.903Z,6.09
2019-03-18T03:39:22.912Z,6.10
2019-03-18T03:40:22.943Z,6.10
2019-03-18T03:41:22.957Z,6.20
2019-03-18T03:42:22.999Z,6.19
2019-03-18T03:43:23.030Z,6.22
2019-03-18T03:44:23.009Z,6.07
2019-03-18T03:45:23.037Z,6.16
2019-03-18T03:46:23.061Z,6.13
2019-03-18T03:47:23.069Z,6.13
2019-03-18T03:48:23.101Z,6.09
2019-03-18T03:49:23.116Z,6.15
2019-03-18T03:50:23.134Z,6.10
2019-03-18T03:51:23.151Z,6.13
2019-03-18T03:52:23.171Z,6.15
2019-03-18T03:53:23.188Z,6.12
2019-03-18T03:54:23.204Z,6.10
2019-03-18T03:55:23.226Z,6.02
2019-03-18T03:56:23.243Z,6.09
2019-03-18T03:57:23.265Z,6.10
2019-03-18T03:58:23.290Z,6.12
2019-03-18T03:59:23.296Z,6.01
2019-03-18T04:00:23.339Z,6.02
2019-03-18T04:01:23.343Z,6.12
2019-03-18T04:02:23.358Z,6.25
2019-03-18T04:03:37.543Z,6.15
2019-03-18T04:04:23.399Z,6.15
2019-03-18T04:05:23.415Z,6.06
2019-03-18T04:06:23.442Z,6.09
2019-03-18T04:07:23.455Z,6.13
2019-03-18T04:08:23.470Z,6.02
2019-03-18T04:09:23.494Z,6.13
2019-03-18T04:10:23.504Z,6.13
2019-03-18T04:11:23.529Z,6.10
2019-03-18T04:12:23.553Z,6.20
2019-03-18T04:13:23.576Z,6.09
2019-03-18T04:14:23.592Z,6.16
2019-03-18T04:15:23.607Z,6.25
2019-03-18T04:16:23.624Z,6.16
2019-03-18T04:17:23.670Z,6.28
2019-03-18T04:18:23.664Z,6.16
2019-03-18T04:19:23.685Z,6.28
2019-03-18T04:20:23.707Z,6.22
2019-03-18T04:21:23.719Z,6.16
2019-03-18T04:22:23.754Z,6.17
2019-03-18T04:23:23.763Z,6.12
2019-03-18T04:24:23.781Z,6.15
2019-03-18T04:25:23.798Z,6.25
2019-03-18T04:26:23.813Z,6.20
2019-03-18T04:27:25.012Z,6.28
2019-03-18T04:28:23.852Z,6.15
2019-03-18T04:29:23.875Z,6.26
2019-03-18T04:30:23.897Z,6.26
2019-03-18T04:31:23.916Z,6.16
2019-03-18T04:32:23.932Z,6.10
2019-03-18T04:33:23.955Z,6.13
2019-03-18T04:34:23.974Z,6.25
2019-03-18T04:35:23.989Z,6.20
2019-03-18T04:36:24.006Z,6.17
2019-03-18T04:37:24.075Z,6.20
2019-03-18T04:38:24.050Z,6.19
2019-03-18T04:39:24.066Z,6.28
2019-03-18T04:40:24.083Z,6.10
2019-03-18T04:41:24.102Z,6.07
2019-03-18T04:42:24.120Z,6.19
2019-03-18T04:43:24.152Z,6.16
2019-03-18T04:44:24.162Z,6.22
2019-03-18T04:45:24.174Z,6.09
2019-03-18T04:46:24.196Z,6.16
2019-03-18T04:47:24.214Z,6.20
2019-03-18T04:48:24.233Z,6.26
2019-03-18T04:49:24.257Z,6.20
2019-03-18T04:50:24.272Z,6.29
2019-03-18T04:51:24.295Z,6.20
2019-03-18T04:52:24.309Z,6.19
2019-03-18T04:53:24.337Z,6.25
2019-03-18T04:54:24.418Z,6.25
2019-03-18T04:55:24.379Z,6.16
2019-03-18T04:56:24.390Z,6.22
2019-03-18T04:57:24.415Z,6.22
2019-03-18T04:58:24.423Z,6.32
2019-03-18T04:59:24.441Z,6.25
2019-03-18T05:00:24.462Z,6.26
2019-03-18T05:01:24.490Z,6.29
2019-03-18T05:02:24.504Z,6.20
2019-03-18T05:03:24.526Z,6.20
2019-03-18T05:04:24.543Z,6.36
2019-03-18T05:05:24.558Z,6.25
2019-03-18T05:06:24.585Z,6.29
2019-03-18T05:07:24.598Z,6.36
2019-03-18T05:08:24.626Z,6.25
2019-03-18T05:09:24.640Z,6.29
2019-03-18T05:10:24.653Z,6.25
2019-03-18T05:11:24.682Z,6.25
2019-03-18T05:12:24.695Z,6.34
2019-03-18T05:13:26.521Z,6.43
2019-03-18T05:14:24.728Z,6.34
2019-03-18T05:15:24.751Z,6.34
2019-03-18T05:16:24.773Z,6.41
2019-03-18T05:17:26.826Z,6.41
2019-03-18T05:18:24.815Z,6.41
2019-03-18T05:19:24.831Z,6.32
2019-03-18T05:20:24.842Z,6.39
2019-03-18T05:21:24.868Z,6.36
2019-03-18T05:22:24.886Z,6.32
2019-03-18T05:23:24.912Z,6.31
2019-03-18T05:24:24.923Z,6.35
2019-03-18T05:25:24.948Z,6.41
2019-03-18T05:26:24.962Z,6.43
2019-03-18T05:27:24.980Z,6.46
2019-03-18T05:28:25.005Z,6.39
2019-03-18T05:29:25.022Z,6.53
2019-03-18T05:30:25.039Z,6.54
2019-03-18T05:31:25.054Z,6.72
2019-03-18T05:32:25.080Z,6.68
2019-03-18T05:33:25.099Z,6.65
2019-03-18T05:34:25.116Z,6.83
2019-03-18T05:35:25.147Z,6.80
2019-03-18T05:36:25.159Z,6.83
2019-03-18T05:37:25.174Z,6.77
2019-03-18T05:38:25.201Z,6.80
2019-03-18T05:39:25.213Z,7.21
2019-03-18T05:40:25.245Z,7.05
2019-03-18T05:41:25.247Z,6.77
2019-03-18T05:42:25.267Z,6.67
2019-03-18T05:43:25.283Z,6.95
2019-03-18T05:44:25.312Z,6.93
2019-03-18T05:45:25.326Z,6.86
2019-03-18T05:46:25.345Z,6.70
2019-03-18T05:47:25.371Z,6.95
2019-03-18T05:48:25.385Z,6.90
2019-03-18T05:49:25.399Z,7.08
2019-03-18T05:50:25.421Z,7.07
2019-03-18T05:51:25.437Z,6.96
2019-03-18T05:52:25.473Z,7.23
2019-03-18T05:53:25.487Z,7.10
2019-03-18T05:54:25.530Z,7.13
2019-03-18T05:55:25.546Z,6.97
2019-03-18T05:56:25.532Z,6.92
2019-03-18T05:57:26.120Z,7.04
2019-03-18T05:58:25.572Z,7.03
2019-03-18T05:59:25.592Z,6.86
2019-03-18T06:00:25.619Z,7.03
2019-03-18T06:01:25.640Z,6.71
2019-03-18T06:02:25.661Z,6.87
2019-03-18T06:03:25.678Z,6.97
2019-03-18T06:04:25.696Z,6.89
2019-03-18T06:05:25.712Z,6.82
2019-03-18T06:06:25.733Z,6.83
2019-03-18T06:07:25.753Z,6.82
2019-03-18T06:08:25.767Z,7.00
2019-03-18T06:09:25.800Z,6.87
2019-03-18T06:10:25.807Z,6.89
2019-03-18T06:11:25.821Z,6.75
2019-03-18T06:12:25.852Z,6.89
2019-03-18T06:13:25.864Z,6.82
2019-03-18T06:14:25.885Z,7.05
2019-03-18T06:15:25.917Z,6.95
2019-03-18T06:16:25.927Z,7.01
2019-03-18T06:17:25.957Z,7.07
2019-03-18T06:18:25.965Z,7.04
2019-03-18T06:19:26.046Z,6.82
2019-03-18T06:20:26.009Z,6.87
2019-03-18T06:21:26.027Z,6.85
2019-03-18T06:22:26.055Z,6.77
2019-03-18T06:23:26.064Z,6.71
2019-03-18T06:24:26.077Z,6.74
2019-03-18T06:25:26.131Z,6.74
2019-03-18T06:26:26.748Z,6.71
2019-03-18T06:27:26.137Z,6.59
2019-03-18T06:28:26.170Z,6.56
2019-03-18T06:29:27.486Z,6.57
2019-03-18T06:30:26.193Z,6.49
2019-03-18T06:31:26.209Z,6.44
2019-03-18T06:32:26.248Z,6.44
2019-03-18T06:33:26.260Z,6.43
2019-03-18T06:34:26.278Z,6.56
2019-03-18T06:35:26.293Z,6.54
2019-03-18T06:36:26.308Z,6.80
2019-03-18T06:37:26.337Z,6.74
2019-03-18T06:38:26.349Z,6.77
2019-03-18T06:39:26.371Z,6.86
2019-03-18T06:40:26.387Z,6.93
2019-03-18T06:41:26.409Z,6.68
2019-03-18T06:42:26.423Z,6.67
2019-03-18T06:43:26.449Z,6.67
2019-03-18T06:44:26.462Z,6.83
2019-03-18T06:45:26.485Z,6.85
2019-03-18T06:46:26.503Z,6.74
2019-03-18T06:47:26.536Z,6.80
2019-03-18T06:48:26.543Z,6.83
2019-03-18T06:49:26.560Z,7.00
2019-03-18T06:50:26.585Z,6.93
2019-03-18T06:51:26.605Z,7.01
2019-03-18T06:52:26.622Z,7.05
2019-03-18T06:53:26.642Z,6.72
2019-03-18T06:54:26.666Z,6.74
2019-03-18T06:55:26.681Z,6.74
2019-03-18T06:56:26.708Z,6.74
2019-03-18T06:57:26.720Z,6.87
2019-03-18T06:58:26.734Z,6.93
2019-03-18T06:59:26.752Z,6.80
2019-03-18T07:00:26.788Z,6.74
2019-03-18T07:01:26.797Z,6.82
2019-03-18T07:02:26.814Z,6.77
2019-03-18T07:03:26.834Z,6.83
2019-03-18T07:04:26.853Z,6.80
2019-03-18T07:05:26.876Z,6.82
2019-03-18T07:06:26.976Z,7.07
2019-03-18T07:07:26.907Z,6.93
2019-03-18T07:08:26.941Z,7.01
2019-03-18T07:09:26.951Z,6.97
2019-03-18T07:10:26.975Z,7.04
2019-03-18T07:11:26.991Z,7.08
2019-03-18T07:12:27.007Z,6.95
2019-03-18T07:13:27.029Z,7.04
2019-03-18T07:14:27.050Z,7.03
2019-03-18T07:15:27.071Z,7.25
2019-03-18T07:16:27.098Z,7.28
2019-03-18T07:17:27.110Z,7.19
2019-03-18T07:18:27.124Z,7.07
2019-03-18T07:19:27.163Z,7.11
2019-03-18T07:20:27.170Z,7.00
2019-03-18T07:21:27.193Z,6.92
2019-03-18T07:22:27.206Z,6.93
2019-03-18T07:23:27.223Z,6.96
2019-03-18T07:24:27.248Z,6.87
2019-03-18T07:25:27.271Z,7.08
2019-03-18T07:26:27.281Z,6.96
2019-03-18T07:27:27.311Z,6.93
2019-03-18T07:28:27.323Z,6.95
2019-03-18T07:29:27.353Z,7.01
2019-03-18T07:30:27.363Z,6.95
2019-03-18T07:31:27.383Z,7.05
2019-03-18T07:32:27.402Z,7.00
2019-03-18T07:33:27.428Z,7.05
2019-03-18T07:34:27.472Z,7.05
2019-03-18T07:35:27.467Z,7.10
2019-03-18T07:36:27.477Z,7.08
2019-03-18T07:37:27.504Z,7.15
2019-03-18T07:38:27.526Z,7.15
2019-03-18T07:39:27.540Z,7.14
2019-03-18T07:40:27.557Z,7.25
2019-03-18T07:41:27.589Z,7.26
2019-03-18T07:42:27.598Z,7.25
2019-03-18T07:43:27.627Z,7.33
2019-03-18T07:44:27.641Z,7.36
2019-03-18T07:45:27.664Z,7.33
2019-03-18T07:46:27.682Z,7.48
2019-03-18T07:47:27.695Z,7.43
2019-03-18T07:48:31.339Z,7.46
2019-03-18T07:49:27.742Z,7.48
2019-03-18T07:50:27.754Z,7.56
2019-03-18T07:51:27.776Z,7.41
2019-03-18T07:52:27.800Z,7.46
2019-03-18T07:53:27.842Z,7.32
2019-03-18T07:54:32.790Z,7.37
2019-03-18T07:55:27.858Z,7.33
2019-03-18T07:56:27.876Z,7.43
2019-03-18T07:57:27.905Z,7.69
2019-03-18T07:58:27.913Z,7.69
2019-03-18T07:59:27.933Z,7.61
2019-03-18T08:00:27.956Z,7.41
2019-03-18T08:01:27.973Z,7.48
2019-03-18T08:02:27.997Z,7.53
2019-03-18T08:03:28.015Z,7.46
2019-03-18T08:04:36.648Z,7.44
2019-03-18T08:05:28.057Z,7.43
2019-03-18T08:06:28.076Z,7.43
2019-03-18T08:07:28.096Z,7.37
2019-03-18T08:08:28.216Z,7.59
2019-03-18T08:09:28.132Z,7.64
2019-03-18T08:10:28.158Z,7.47
2019-03-18T08:11:28.172Z,7.46
2019-03-18T08:12:28.192Z,7.46
2019-03-18T08:13:28.213Z,7.33
2019-03-18T08:14:28.248Z,7.59
2019-03-18T08:15:28.252Z,7.47
2019-03-18T08:16:28.288Z,7.50
2019-03-18T08:17:28.298Z,7.40
2019-03-18T08:18:28.316Z,7.44
2019-03-18T08:19:28.332Z,7.43
2019-03-18T08:20:28.522Z,7.51
2019-03-18T08:21:28.378Z,7.32
2019-03-18T08:22:28.409Z,7.40
2019-03-18T08:23:28.408Z,7.44
2019-03-18T08:24:28.435Z,7.48
2019-03-18T08:25:28.449Z,7.46
2019-03-18T08:26:28.481Z,7.48
2019-03-18T08:27:28.493Z,7.59
2019-03-18T08:28:28.507Z,7.50
2019-03-18T08:29:28.530Z,7.56
2019-03-18T08:30:28.561Z,7.58
2019-03-18T08:31:28.645Z,7.46
2019-03-18T08:32:28.589Z,7.46
2019-03-18T08:33:28.618Z,7.47
2019-03-18T08:34:28.641Z,7.48
2019-03-18T08:35:28.656Z,7.51
2019-03-18T08:36:28.669Z,7.51
2019-03-18T08:37:28.689Z,7.59
2019-03-18T08:38:28.710Z,7.56
2019-03-18T08:39:28.731Z,7.59
2019-03-18T08:40:28.764Z,7.51
2019-03-18T08:41:28.779Z,7.55
2019-03-18T08:42:28.790Z,7.74
2019-03-18T08:43:28.807Z,7.64
2019-03-18T08:44:28.831Z,7.69
2019-03-18T08:45:28.853Z,7.72
2019-03-18T08:46:28.873Z,7.78
2019-03-18T08:47:28.892Z,7.70
2019-03-18T08:48:28.908Z,7.75
2019-03-18T08:49:28.931Z,7.77
2019-03-18T08:50:28.948Z,7.70
2019-03-18T08:51:28.963Z,7.75
2019-03-18T08:52:28.989Z,7.80
2019-03-18T08:53:29.005Z,7.77
2019-03-18T08:54:29.027Z,7.83
2019-03-18T08:55:29.071Z,7.88
2019-03-18T08:56:29.756Z,7.90
2019-03-18T08:57:29.087Z,7.81
2019-03-18T08:58:29.107Z,7.87
2019-03-18T08:59:29.125Z,7.93
2019-03-18T09:00:29.151Z,7.90
2019-03-18T09:01:29.168Z,7.98
2019-03-18T09:02:29.188Z,7.93
2019-03-18T09:03:29.206Z,7.96
2019-03-18T09:04:29.228Z,8.06
2019-03-18T09:05:29.254Z,7.93
2019-03-18T09:06:30.505Z,7.96
2019-03-18T09:07:29.292Z,7.85
2019-03-18T09:08:29.312Z,7.96
2019-03-18T09:09:29.356Z,7.87
2019-03-18T09:10:29.352Z,7.84
2019-03-18T09:11:29.371Z,7.83
2019-03-18T09:12:29.407Z,7.90
2019-03-18T09:13:32.003Z,7.91
2019-03-18T09:14:29.427Z,7.95
2019-03-18T09:15:29.495Z,7.91
2019-03-18T09:16:29.478Z,7.90
2019-03-18T09:17:29.507Z,7.90
2019-03-18T09:18:29.512Z,8.05
2019-03-18T09:19:29.529Z,8.17
2019-03-18T09:20:29.549Z,8.14
2019-03-18T09:21:29.570Z,8.17
2019-03-18T09:22:29.599Z,8.14
2019-03-18T09:23:29.605Z,8.08
2019-03-18T09:24:29.631Z,8.02
2019-03-18T09:25:29.662Z,8.03
2019-03-18T09:26:29.673Z,8.02
2019-03-18T09:27:29.693Z,8.08
2019-03-18T09:28:29.713Z,8.05
2019-03-18T09:29:29.735Z,8.17
2019-03-18T09:30:29.760Z,8.17
2019-03-18T09:31:29.811Z,8.28
2019-03-18T09:32:29.803Z,8.49
2019-03-18T09:33:29.818Z,8.53
2019-03-18T09:34:29.840Z,8.50
2019-03-18T09:35:29.856Z,8.32
2019-03-18T09:36:29.874Z,8.44
2019-03-18T09:37:29.948Z,8.49
2019-03-18T09:38:29.920Z,8.44
2019-03-18T09:39:29.936Z,8.57
2019-03-18T09:40:29.955Z,8.77
2019-03-18T09:41:29.983Z,8.74
2019-03-18T09:42:29.998Z,8.68
2019-03-18T09:43:30.017Z,9.12
2019-03-18T09:44:30.044Z,9.16
2019-03-18T09:45:30.059Z,9.26
2019-03-18T09:46:30.079Z,9.34
2019-03-18T09:47:30.111Z,9.19
2019-03-18T09:48:30.123Z,9.19
2019-03-18T09:49:30.147Z,9.27
2019-03-18T09:50:30.161Z,9.30
2019-03-18T09:51:30.183Z,9.33
2019-03-18T09:52:30.206Z,9.09
2019-03-18T09:53:30.231Z,9.13
2019-03-18T09:54:30.249Z,8.89
2019-03-18T09:55:30.265Z,8.72
2019-03-18T09:56:30.287Z,8.79
2019-03-18T09:57:30.305Z,8.61
2019-03-18T09:58:30.339Z,8.75
2019-03-18T09:59:30.351Z,8.61
2019-03-18T10:00:30.370Z,8.66
2019-03-18T10:01:30.394Z,8.64
2019-03-18T10:02:30.409Z,8.59
2019-03-18T10:03:30.448Z,8.54
2019-03-18T10:04:30.460Z,8.54
2019-03-18T10:05:30.476Z,8.50
2019-03-18T10:06:30.497Z,8.57
2019-03-18T10:07:30.518Z,8.57
2019-03-18T10:08:30.548Z,8.61
2019-03-18T10:09:30.558Z,8.59
2019-03-18T10:10:30.584Z,8.50
2019-03-18T10:11:30.609Z,8.54
2019-03-18T10:12:30.628Z,8.50
2019-03-18T10:13:30.654Z,8.52
2019-03-18T10:14:30.668Z,8.50
2019-03-18T10:15:30.681Z,8.54
2019-03-18T10:16:30.707Z,8.68
2019-03-18T10:17:30.753Z,8.71
2019-03-18T10:18:30.748Z,8.68
2019-03-18T10:19:33.725Z,8.81
2019-03-18T10:20:30.799Z,8.66
2019-03-18T10:21:30.816Z,8.72
2019-03-18T10:22:30.830Z,8.84
2019-03-18T10:23:30.856Z,8.74
2019-03-18T10:24:30.873Z,8.87
2019-03-18T10:25:30.890Z,8.87
2019-03-18T10:26:30.915Z,8.84
2019-03-18T10:27:30.958Z,8.77
2019-03-18T10:28:30.952Z,8.81
2019-03-18T10:29:30.978Z,8.72
2019-03-18T10:30:33.856Z,8.78
2019-03-18T10:31:31.027Z,8.63
2019-03-18T10:32:31.036Z,8.72
2019-03-18T10:33:31.059Z,8.74
2019-03-18T10:34:31.092Z,8.79
2019-03-18T10:35:31.098Z,8.71
2019-03-18T10:36:31.115Z,8.64
2019-03-18T10:37:31.152Z,8.87
2019-03-18T10:38:31.159Z,9.11
2019-03-18T10:39:31.184Z,9.34
2019-03-18T10:40:31.206Z,9.73
2019-03-18T10:41:31.225Z,10.20
2019-03-18T10:42:31.251Z,10.05
2019-03-18T10:43:31.263Z,10.57
2019-03-18T10:44:31.297Z,10.98
2019-03-18T10:45:31.309Z,11.63
2019-03-18T10:46:31.332Z,11.85
2019-03-18T10:47:31.353Z,11.26
2019-03-18T10:48:31.380Z,11.15
2019-03-18T10:49:31.402Z,11.07
2019-03-18T10:50:31.423Z,10.76
2019-03-18T10:51:32.049Z,10.42
2019-03-18T10:52:31.481Z,10.23
2019-03-18T10:53:31.509Z,10.15
2019-03-18T10:54:31.640Z,10.23
2019-03-18T10:55:31.554Z,10.18
2019-03-18T10:56:31.562Z,10.28
2019-03-18T10:57:31.590Z,10.18
2019-03-18T10:58:31.604Z,9.97
2019-03-18T10:59:31.638Z,9.85
2019-03-18T11:00:31.656Z,9.81
2019-03-18T11:01:31.693Z,9.85
2019-03-18T11:02:31.706Z,9.92
2019-03-18T11:03:31.720Z,9.82
2019-03-18T11:04:31.746Z,9.72
2019-03-18T11:05:31.774Z,9.73
2019-03-18T11:06:31.789Z,9.66
2019-03-18T11:07:31.815Z,9.64
2019-03-18T11:08:31.842Z,9.69
2019-03-18T11:09:31.865Z,9.49
2019-03-18T11:10:31.895Z,9.40
2019-03-18T11:11:31.909Z,9.44
2019-03-18T11:12:31.931Z,9.39
2019-03-18T11:13:31.948Z,9.58
2019-03-18T11:14:31.983Z,9.52
2019-03-18T11:15:31.994Z,9.51
2019-03-18T11:16:32.019Z,9.44
2019-03-18T11:17:32.040Z,9.49
2019-03-18T11:18:32.064Z,9.42
2019-03-18T11:19:32.121Z,9.33
2019-03-18T11:20:32.099Z,9.29
2019-03-18T11:21:32.127Z,9.34
2019-03-18T11:22:32.146Z,9.05
2019-03-18T11:23:32.172Z,9.13
2019-03-18T11:24:32.198Z,8.99
2019-03-18T11:25:32.210Z,8.93
2019-03-18T11:26:32.238Z,8.90
2019-03-18T11:27:32.262Z,8.90
2019-03-18T11:28:32.279Z,8.74
2019-03-18T11:29:32.304Z,8.77
2019-03-18T11:30:32.322Z,8.72
2019-03-18T11:31:32.343Z,8.64
2019-03-18T11:32:32.371Z,8.74
2019-03-18T11:33:32.391Z,8.74
2019-03-18T11:34:32.415Z,8.87
2019-03-18T11:35:32.441Z,9.34
2019-03-18T11:36:32.454Z,9.77
2019-03-18T11:37:32.469Z,9.76
2019-03-18T11:38:32.503Z,9.77
2019-03-18T11:39:32.513Z,10.84
2019-03-18T11:40:32.542Z,11.83
2019-03-18T11:41:32.566Z,11.97
2019-03-18T11:42:32.587Z,12.36
2019-03-18T11:43:32.607Z,12.44
2019-03-18T11:44:32.639Z,13.43
2019-03-18T11:45:32.651Z,13.98
2019-03-18T11:46:32.685Z,14.15
2019-03-18T11:47:32.705Z,14.51
2019-03-18T11:48:32.727Z,14.36
2019-03-18T11:49:39.515Z,14.16
2019-03-18T11:50:32.786Z,13.82
2019-03-18T11:51:33.251Z,13.28
2019-03-18T11:52:32.970Z,13.13
2019-03-18T11:53:32.865Z,12.78
2019-03-18T11:54:32.936Z,12.37
2019-03-18T11:55:32.914Z,11.89
2019-03-18T11:56:32.948Z,11.65
2019-03-18T11:57:32.964Z,11.37
2019-03-18T11:58:32.992Z,11.16
2019-03-18T11:59:33.026Z,11.16
2019-03-18T12:00:33.047Z,11.43
2019-03-18T12:01:33.074Z,11.89
2019-03-18T12:02:33.091Z,11.80
2019-03-18T12:03:33.122Z,11.52
2019-03-18T12:04:33.148Z,11.04
2019-03-18T12:05:33.183Z,10.89
2019-03-18T12:06:33.197Z,10.84
2019-03-18T12:07:33.222Z,10.77
2019-03-18T12:08:33.253Z,10.64
2019-03-18T12:09:33.279Z,10.46
2019-03-18T12:10:33.303Z,10.39
2019-03-18T12:11:33.321Z,10.38
2019-03-18T12:12:33.343Z,10.36
2019-03-18T12:13:33.366Z,10.17
2019-03-18T12:14:33.402Z,10.10
2019-03-18T12:15:36.264Z,10.12
2019-03-18T12:16:33.449Z,10.18
2019-03-18T12:17:33.468Z,10.17
2019-03-18T12:18:33.482Z,10.20
2019-03-18T12:19:33.506Z,10.17
2019-03-18T12:20:33.536Z,10.21
2019-03-18T12:21:33.558Z,10.53
2019-03-18T12:22:35.582Z,10.79
2019-03-18T12:23:33.609Z,10.62
2019-03-18T12:24:33.628Z,10.58
2019-03-18T12:25:34.006Z,10.67
2019-03-18T12:26:33.676Z,10.64
2019-03-18T12:27:33.696Z,10.61
2019-03-18T12:28:33.727Z,10.76
2019-03-18T12:29:33.742Z,10.71
2019-03-18T12:30:33.766Z,10.80
2019-03-18T12:31:33.787Z,10.77
2019-03-18T12:32:33.809Z,10.83
2019-03-18T12:33:33.833Z,10.90
2019-03-18T12:34:33.861Z,10.80
2019-03-18T12:35:33.888Z,10.82
2019-03-18T12:36:33.909Z,10.80
2019-03-18T12:37:33.923Z,10.95
2019-03-18T12:38:33.947Z,10.68
2019-03-18T12:39:33.969Z,10.71
2019-03-18T12:40:33.993Z,10.62
2019-03-18T12:41:34.013Z,10.61
2019-03-18T12:42:34.042Z,10.58
2019-03-18T12:43:34.066Z,10.45
2019-03-18T12:44:34.084Z,10.46
2019-03-18T12:45:34.111Z,10.41
2019-03-18T12:46:34.124Z,10.38
2019-03-18T12:47:34.150Z,10.21
2019-03-18T12:48:34.166Z,10.00
2019-03-18T12:49:34.190Z,10.02
2019-03-18T12:50:54.402Z,9.95
2019-03-18T12:51:34.246Z,9.99
2019-03-18T12:52:34.268Z,9.97
2019-03-18T12:53:34.286Z,9.99
2019-03-18T12:54:34.304Z,10.02
2019-03-18T12:55:34.330Z,9.97
2019-03-18T12:56:34.362Z,10.05
2019-03-18T12:57:34.373Z,10.13
2019-03-18T12:58:34.400Z,10.00
2019-03-18T12:59:34.418Z,10.13
2019-03-18T13:00:34.447Z,10.02
2019-03-18T13:01:34.463Z,10.06
2019-03-18T13:02:34.485Z,10.02
2019-03-18T13:03:34.503Z,9.97
2019-03-18T13:04:34.531Z,9.97
2019-03-18T13:05:34.553Z,10.05
2019-03-18T13:06:34.572Z,10.03
2019-03-18T13:07:34.601Z,9.74
2019-03-18T13:08:34.613Z,9.69
2019-03-18T13:09:34.638Z,9.76
2019-03-18T13:10:34.663Z,9.84
2019-03-18T13:11:34.693Z,10.00
2019-03-18T13:12:34.704Z,9.85
2019-03-18T13:13:34.723Z,9.87
2019-03-18T13:14:34.752Z,9.91
2019-03-18T13:15:34.782Z,9.88